North Fortune — 3EVF5 — position and weather

sailwx.info

Track history (hours):
 
Tides and Currents Weather Stations Pressure Air Temp Water Temp Dewpoint Dewpoint Depression Visibility Wind Speed Wind Dir Waves Ship Positions

North Fortune

Last reported at 2018-Feb-24 18:54 UTC. Time now 2018-Feb-24 19:51 UTC.
Position S 33°40' E 151°47'.

Length 235 m; draft 8.1 m.

Type: Cargo ship. MMSI: 357083000.

Date/timePositionNaut miles runAvg speedWind from/ knotsBaromVisibWave heightAir tempDewpointWater temp
2018-Feb-24 18:54S 33°40' E 151°47'1 2.5
2018-Feb-24 18:30S 33°39' E 151°48'1 2.7
2018-Feb-24 18:00S 33°38' E 151°49'1 2.8
2018-Feb-24 17:30S 33°37' E 151°50'1 2.8
2018-Feb-24 17:00S 33°36' E 151°51'1 2.9
2018-Feb-24 16:30S 33°35' E 151°52'2 3.0
2018-Feb-24 16:00S 33°34' E 151°53'2 3.1
2018-Feb-24 15:30S 33°32' E 151°54'2 3.4
2018-Feb-24 14:56S 33°31' E 151°56'3 3.5
2018-Feb-24 13:59S 33°28' E 151°58'2 3.7
2018-Feb-24 13:28S 33°27' E 152°00'3 3.6
2018-Feb-24 12:45S 33°25' E 152°03'28 2.4
2018-Feb-24 01:00S 33°42' E 152°30'43 2.6
2018-Feb-23 08:54S 33°54' E 151°41'4 7.0
2018-Feb-23 08:23S 33°56' E 151°37'2 5.5
2018-Feb-23 08:00S 33°56' E 151°34'45 1.5
2018-Feb-22 02:21S 33°17' E 152°01'2 1.5
2018-Feb-22 01:06S 33°17' E 152°03'1 1.5
2018-Feb-22 00:32S 33°16' E 152°04'0 1.8
2018-Feb-22 00:29S 33°16' E 152°04'1 1.4
2018-Feb-22 00:00S 33°16' E 152°05'1 0.8
2018-Feb-21 22:34S 33°16' E 152°06'1 1.9
2018-Feb-21 22:04S 33°16' E 152°05'3 8.4
2018-Feb-21 21:46S 33°16' E 152°02'310.2
2018-Feb-21 21:28S 33°15' E 151°59'2 2.6
2018-Feb-21 20:40S 33°15' E 151°56'0 1.6
2018-Feb-21 20:27S 33°15' E 151°57'1 1.8
2018-Feb-21 19:59S 33°15' E 151°58'2 1.6
2018-Feb-21 18:42S 33°14' E 152°00'1 1.4
2018-Feb-21 17:59S 33°14' E 152°01'1 1.4
2018-Feb-21 17:15S 33°14' E 152°03'0 1.3
2018-Feb-21 17:00S 33°14' E 152°03'1 1.1
2018-Feb-21 16:17S 33°14' E 152°04'1 1.1
2018-Feb-21 15:51S 33°14' E 152°04'0 1.2
2018-Feb-21 15:30S 33°14' E 152°05'1 1.3
2018-Feb-21 15:00S 33°14' E 152°06'1 1.2
2018-Feb-21 14:30S 33°14' E 152°06'1 0.4
2018-Feb-21 12:07S 33°15' E 152°05'1 6.7
2018-Feb-21 11:55S 33°15' E 152°04'4 6.1
2018-Feb-21 11:15S 33°16' E 151°59'5 0.9
2018-Feb-21 05:46S 33°12' E 151°56'0 1.4
2018-Feb-21 05:30S 33°11' E 151°56'5 7.5
2018-Feb-21 04:49S 33°07' E 151°53'310.3
2018-Feb-21 04:30S 33°03' E 151°54'5 9.0
2018-Feb-21 04:00S 32°59' E 151°56'3 6.9
2018-Feb-21 03:30S 32°57' E 151°59'5 9.7
2018-Feb-21 03:00S 32°54' E 152°04'510.5
2018-Feb-21 02:30S 32°52' E 152°09'713.8
2018-Feb-21 02:00S 32°49' E 152°17'713.1
2018-Feb-21 01:30S 32°45' E 152°23'713.2
2018-Feb-21 01:00S 32°40' E 152°28'713.2
2018-Feb-21 00:30S 32°35' E 152°33'612.9
2018-Feb-21 00:00S 32°30' E 152°38'24911.9
2018-Feb-20 03:01S 28°28' E 153°47'013.5
2018-Feb-20 03:00S 28°28' E 153°47'612.7
2018-Feb-20 02:30S 28°22' E 153°47'612.4
2018-Feb-20 02:00S 28°15' E 153°48'612.3
2018-Feb-20 01:30S 28°09' E 153°49'612.3
2018-Feb-20 01:00S 28°03' E 153°49'612.8
2018-Feb-20 00:30S 27°57' E 153°48'713.1
2018-Feb-20 00:00S 27°50' E 153°47'713.1
2018-Feb-19 23:30S 27°44' E 153°46'612.7
2018-Feb-19 22:59S 27°37' E 153°45'912.5
2018-Feb-19 22:15S 27°28' E 153°43'412.7
2018-Feb-19 21:54S 27°24' E 153°42'  
Track history (hours):
 
Tides and Currents Weather Stations Pressure Air Temp Water Temp Dewpoint Dewpoint Depression Visibility Wind Speed Wind Dir Waves Ship Positions

North Fortune

Last reported at 2018-Feb-24 18:54 UTC. Time now 2018-Feb-24 19:51 UTC.
Position S 33°40' E 151°47'.

Length 235 m; draft 8.1 m.

Type: Cargo ship. MMSI: 357083000.

Date/timePositionNaut miles runAvg speedWind from/ knotsBaromVisibWave heightAir tempDewpointWater temp
2018-Feb-24 18:54S 33°40' E 151°47'1 2.5
2018-Feb-24 18:30S 33°39' E 151°48'1 2.7
2018-Feb-24 18:00S 33°38' E 151°49'1 2.8
2018-Feb-24 17:30S 33°37' E 151°50'1 2.8
2018-Feb-24 17:00S 33°36' E 151°51'1 2.9
2018-Feb-24 16:30S 33°35' E 151°52'2 3.0
2018-Feb-24 16:00S 33°34' E 151°53'2 3.1
2018-Feb-24 15:30S 33°32' E 151°54'2 3.4
2018-Feb-24 14:56S 33°31' E 151°56'3 3.5
2018-Feb-24 13:59S 33°28' E 151°58'2 3.7
2018-Feb-24 13:28S 33°27' E 152°00'3 3.6
2018-Feb-24 12:45S 33°25' E 152°03'28 2.4
2018-Feb-24 01:00S 33°42' E 152°30'43 2.6
2018-Feb-23 08:54S 33°54' E 151°41'4 7.0
2018-Feb-23 08:23S 33°56' E 151°37'2 5.5
2018-Feb-23 08:00S 33°56' E 151°34'45 1.5
2018-Feb-22 02:21S 33°17' E 152°01'2 1.5
2018-Feb-22 01:06S 33°17' E 152°03'1 1.5
2018-Feb-22 00:32S 33°16' E 152°04'0 1.8
2018-Feb-22 00:29S 33°16' E 152°04'1 1.4
2018-Feb-22 00:00S 33°16' E 152°05'1 0.8
2018-Feb-21 22:34S 33°16' E 152°06'1 1.9
2018-Feb-21 22:04S 33°16' E 152°05'3 8.4
2018-Feb-21 21:46S 33°16' E 152°02'310.2
2018-Feb-21 21:28S 33°15' E 151°59'2 2.6
2018-Feb-21 20:40S 33°15' E 151°56'0 1.6
2018-Feb-21 20:27S 33°15' E 151°57'1 1.8
2018-Feb-21 19:59S 33°15' E 151°58'2 1.6
2018-Feb-21 18:42S 33°14' E 152°00'1 1.4
2018-Feb-21 17:59S 33°14' E 152°01'1 1.4
2018-Feb-21 17:15S 33°14' E 152°03'0 1.3
2018-Feb-21 17:00S 33°14' E 152°03'1 1.1
2018-Feb-21 16:17S 33°14' E 152°04'1 1.1
2018-Feb-21 15:51S 33°14' E 152°04'0 1.2
2018-Feb-21 15:30S 33°14' E 152°05'1 1.3
2018-Feb-21 15:00S 33°14' E 152°06'1 1.2
2018-Feb-21 14:30S 33°14' E 152°06'1 0.4
2018-Feb-21 12:07S 33°15' E 152°05'1 6.7
2018-Feb-21 11:55S 33°15' E 152°04'4 6.1
2018-Feb-21 11:15S 33°16' E 151°59'5 0.9
2018-Feb-21 05:46S 33°12' E 151°56'0 1.4
2018-Feb-21 05:30S 33°11' E 151°56'5 7.5
2018-Feb-21 04:49S 33°07' E 151°53'310.3
2018-Feb-21 04:30S 33°03' E 151°54'5 9.0
2018-Feb-21 04:00S 32°59' E 151°56'3 6.9
2018-Feb-21 03:30S 32°57' E 151°59'5 9.7
2018-Feb-21 03:00S 32°54' E 152°04'510.5
2018-Feb-21 02:30S 32°52' E 152°09'713.8
2018-Feb-21 02:00S 32°49' E 152°17'713.1
2018-Feb-21 01:30S 32°45' E 152°23'713.2
2018-Feb-21 01:00S 32°40' E 152°28'713.2
2018-Feb-21 00:30S 32°35' E 152°33'612.9
2018-Feb-21 00:00S 32°30' E 152°38'24911.9
2018-Feb-20 03:01S 28°28' E 153°47'013.5
2018-Feb-20 03:00S 28°28' E 153°47'612.7
2018-Feb-20 02:30S 28°22' E 153°47'612.4
2018-Feb-20 02:00S 28°15' E 153°48'612.3
2018-Feb-20 01:30S 28°09' E 153°49'612.3
2018-Feb-20 01:00S 28°03' E 153°49'612.8
2018-Feb-20 00:30S 27°57' E 153°48'713.1
2018-Feb-20 00:00S 27°50' E 153°47'713.1
2018-Feb-19 23:30S 27°44' E 153°46'612.7
2018-Feb-19 22:59S 27°37' E 153°45'912.5
2018-Feb-19 22:15S 27°28' E 153°43'412.7
2018-Feb-19 21:54S 27°24' E 153°42'  

Dump ship's entire track history